Time;durP1;ratioP1;P1;durP2;ratioP2;P2;SDS_P1;SDS_P2;PMS_P1;PMS_P2;Temp;Humidity;BMP_temperature;BMP_pressure;BME280_temperature;BME280_humidity;BME280_pressure;Samples;Min_cycle;Max_cycle;Signal;HPM_P1;HPM_P2
2023/07/18 00:01:27;;;;;;;0.70;0.70;;;;;15.60;96635.00;;;;5054994;28;20192;-54
2023/07/18 00:03:55;;;;;;;1.17;1.17;;;;;15.60;96644.00;;;;5055071;28;20216;-54
2023/07/18 00:06:24;;;;;;;0.60;0.60;;;;;15.60;96643.00;;;;5055206;28;20517;-54
2023/07/18 00:08:52;;;;;;;0.50;0.50;;;;;15.60;96644.00;;;;5054833;28;20192;-55
2023/07/18 00:11:20;;;;;;;0.50;0.50;;;;;15.70;96643.00;;;;5054843;28;20195;-54
2023/07/18 00:13:49;;;;;;;0.57;0.57;;;;;15.70;96652.00;;;;5054764;28;20212;-55
2023/07/18 00:16:16;;;;;;;0.67;0.67;;;;;15.70;96642.00;;;;5054691;28;20220;-55
2023/07/18 00:18:44;;;;;;;0.87;0.87;;;;;15.80;96643.00;;;;5054951;28;20196;-55
2023/07/18 00:21:12;;;;;;;0.60;0.60;;;;;15.80;96655.00;;;;5054862;28;20211;-56
2023/07/18 00:23:39;;;;;;;0.60;0.60;;;;;15.80;96652.00;;;;5054505;28;20222;-55
2023/07/18 00:26:08;;;;;;;0.53;0.53;;;;;15.60;96654.00;;;;5054802;28;20242;-54
2023/07/18 00:28:35;;;;;;;1.17;1.07;;;;;15.50;96655.00;;;;5055048;28;20219;-56
2023/07/18 00:31:05;;;;;;;0.93;0.93;;;;;15.30;96650.00;;;;5054729;28;20306;-55
2023/07/18 00:33:32;;;;;;;0.60;0.60;;;;;15.30;96651.00;;;;5054636;28;20574;-55
2023/07/18 00:35:59;;;;;;;0.73;0.73;;;;;15.40;96655.00;;;;5054294;28;20220;-54
2023/07/18 00:38:27;;;;;;;1.00;0.90;;;;;15.40;96656.00;;;;5054299;28;20188;-54
2023/07/18 00:40:54;;;;;;;0.50;0.50;;;;;15.50;96650.00;;;;5054640;28;20200;-55
2023/07/18 00:43:22;;;;;;;0.50;0.50;;;;;15.50;96644.00;;;;5054148;28;20223;-54
2023/07/18 00:45:51;;;;;;;0.70;0.70;;;;;15.60;96640.00;;;;5054400;28;20196;-55
2023/07/18 00:48:20;;;;;;;0.50;0.50;;;;;15.60;96637.00;;;;5054240;28;20660;-58
2023/07/18 00:50:48;;;;;;;1.10;1.03;;;;;15.60;96640.00;;;;5054070;28;20192;-54
2023/07/18 00:53:15;;;;;;;0.93;0.93;;;;;15.40;96642.00;;;;5054224;28;20582;-54
2023/07/18 00:55:43;;;;;;;0.70;0.70;;;;;15.20;96637.00;;;;5053927;28;20222;-54
2023/07/18 00:58:11;;;;;;;0.63;0.63;;;;;15.20;96641.00;;;;5036187;28;20865;-54
2023/07/18 01:00:38;;;;;;;0.50;0.50;;;;;15.20;96641.00;;;;5054069;28;20725;-54
2023/07/18 01:03:06;;;;;;;0.77;0.77;;;;;15.30;96633.00;;;;5036001;28;20223;-54
2023/07/18 01:05:37;;;;;;;1.03;1.03;;;;;15.10;96631.00;;;;5053828;28;20195;-54
2023/07/18 01:08:05;;;;;;;0.60;0.60;;;;;15.10;96628.00;;;;5054040;28;20187;-54
2023/07/18 01:10:32;;;;;;;0.80;0.80;;;;;15.10;96624.00;;;;5054291;28;20192;-54
2023/07/18 01:13:01;;;;;;;1.00;1.00;;;;;14.80;96621.00;;;;5035874;28;20223;-54
2023/07/18 01:15:30;;;;;;;0.80;0.80;;;;;14.70;96630.00;;;;5053514;28;20694;-54
2023/07/18 01:17:58;;;;;;;0.63;0.63;;;;;14.70;96625.00;;;;5053562;28;20192;-54
2023/07/18 01:20:27;;;;;;;0.70;0.70;;;;;14.70;96620.00;;;;5053527;28;20196;-53
2023/07/18 01:22:57;;;;;;;0.60;0.60;;;;;14.70;96618.00;;;;5053383;28;20227;-54
2023/07/18 01:25:26;;;;;;;0.60;0.60;;;;;14.70;96617.00;;;;5053427;28;20188;-54
2023/07/18 01:27:55;;;;;;;0.70;0.70;;;;;14.80;96619.00;;;;5053679;28;20203;-54
2023/07/18 01:30:25;;;;;;;2.43;1.00;;;;;14.80;96618.00;;;;5053335;28;20192;-54
2023/07/18 01:32:52;;;;;;;0.83;0.83;;;;;14.70;96615.00;;;;5053498;28;20641;-54
2023/07/18 01:35:23;;;;;;;0.60;0.60;;;;;14.70;96619.00;;;;5053425;28;20216;-53
2023/07/18 01:37:50;;;;;;;0.93;0.90;;;;;14.70;96618.00;;;;5053371;28;20191;-54
2023/07/18 01:40:21;;;;;;;0.43;0.43;;;;;14.70;96611.00;;;;5053233;28;20192;-55
2023/07/18 01:42:51;;;;;;;1.07;1.07;;;;;14.60;96607.00;;;;5053151;28;20273;-55
2023/07/18 01:45:19;;;;;;;0.60;0.60;;;;;14.60;96620.00;;;;5053121;28;20712;-55
2023/07/18 01:47:47;;;;;;;0.70;0.70;;;;;14.60;96614.00;;;;5053612;28;20226;-55
2023/07/18 01:50:14;;;;;;;1.97;1.03;;;;;14.70;96612.00;;;;5053020;28;20203;-55
2023/07/18 01:52:42;;;;;;;0.50;0.50;;;;;14.70;96605.00;;;;5053194;28;20216;-55
2023/07/18 01:55:10;;;;;;;0.67;0.67;;;;;14.60;96607.00;;;;5052950;28;20229;-55
2023/07/18 01:57:46;;;;;;;0.70;0.70;;;;;14.60;96597.00;;;;5052953;28;20220;-55
2023/07/18 02:00:18;;;;;;;0.70;0.70;;;;;14.50;96595.00;;;;5053239;28;20184;-55
2023/07/18 02:02:48;;;;;;;0.60;0.60;;;;;14.40;96596.00;;;;5053194;28;20303;-57
2023/07/18 02:05:17;;;;;;;1.23;1.00;;;;;14.30;96593.00;;;;5053156;28;20271;-55
2023/07/18 02:07:46;;;;;;;0.70;0.70;;;;;14.40;96592.00;;;;5052906;28;20192;-55
2023/07/18 02:10:15;;;;;;;0.67;0.67;;;;;14.30;96586.00;;;;5052885;28;20252;-55
2023/07/18 02:12:43;;;;;;;0.60;0.60;;;;;14.40;96599.00;;;;5052995;28;20216;-58
2023/07/18 02:15:13;;;;;;;0.83;0.80;;;;;14.30;96596.00;;;;5053508;28;20211;-54
2023/07/18 02:17:42;;;;;;;0.60;0.60;;;;;14.30;96592.00;;;;5053271;28;20219;-54
2023/07/18 02:20:11;;;;;;;0.93;0.80;;;;;14.30;96587.00;;;;5052665;28;20687;-54
2023/07/18 02:22:40;;;;;;;0.60;0.60;;;;;14.20;96594.00;;;;5052447;28;20333;-54
2023/07/18 02:25:09;;;;;;;0.53;0.53;;;;;14.20;96591.00;;;;5052666;28;20203;-54
2023/07/18 02:27:40;;;;;;;0.60;0.60;;;;;14.20;96591.00;;;;5053074;28;20272;-56
2023/07/18 02:30:11;;;;;;;0.60;0.60;;;;;14.30;96598.00;;;;5052832;28;20192;-55
2023/07/18 02:32:39;;;;;;;1.67;0.77;;;;;14.10;96596.00;;;;5052809;28;20311;-53
2023/07/18 02:35:07;;;;;;;0.87;0.87;;;;;14.00;96590.00;;;;5052408;28;20188;-53
2023/07/18 02:37:35;;;;;;;0.50;0.50;;;;;14.00;96588.00;;;;5052488;28;20246;-55
2023/07/18 02:40:08;;;;;;;0.50;0.50;;;;;14.00;96594.00;;;;5052429;28;20242;-55
2023/07/18 02:42:36;;;;;;;0.87;0.87;;;;;13.90;96584.00;;;;5052429;28;20248;-53
2023/07/18 02:45:04;;;;;;;0.57;0.57;;;;;13.90;96585.00;;;;5052353;28;20235;-55
2023/07/18 02:47:33;;;;;;;0.90;0.90;;;;;14.00;96585.00;;;;5052629;28;20734;-53
2023/07/18 02:50:00;;;;;;;1.57;1.00;;;;;13.80;96586.00;;;;5052415;28;20192;-53
2023/07/18 02:52:28;;;;;;;0.50;0.50;;;;;14.00;96590.00;;;;5052438;28;20325;-53
2023/07/18 02:54:56;;;;;;;0.60;0.60;;;;;14.00;96584.00;;;;5052299;28;20192;-56
2023/07/18 02:57:24;;;;;;;0.70;0.70;;;;;14.10;96592.00;;;;5052231;28;20285;-53
2023/07/18 02:59:51;;;;;;;0.53;0.53;;;;;14.00;96591.00;;;;5034510;28;20343;-53
2023/07/18 03:02:20;;;;;;;0.70;0.70;;;;;13.90;96589.00;;;;5052401;28;20207;-53
2023/07/18 03:04:50;;;;;;;1.50;1.40;;;;;13.70;96590.00;;;;5034321;28;20200;-53
2023/07/18 03:07:18;;;;;;;0.47;0.47;;;;;13.70;96586.00;;;;5052271;28;20690;-54
2023/07/18 03:09:46;;;;;;;1.00;1.00;;;;;13.80;96580.00;;;;5052717;28;20200;-54
2023/07/18 03:12:13;;;;;;;0.50;0.50;;;;;13.60;96586.00;;;;5052102;28;20184;-54
2023/07/18 03:14:41;;;;;;;0.60;0.60;;;;;13.10;96576.00;;;;5052181;28;20195;-54
2023/07/18 03:17:09;;;;;;;1.30;1.10;;;;;13.30;96579.00;;;;5052292;28;20311;-54
2023/07/18 03:19:36;;;;;;;0.40;0.40;;;;;13.40;96573.00;;;;5052100;28;20196;-54
2023/07/18 03:22:05;;;;;;;0.83;0.83;;;;;13.40;96579.00;;;;5052272;28;20271;-55
2023/07/18 03:24:35;;;;;;;0.60;0.60;;;;;13.50;96572.00;;;;5055598;28;20208;-57
2023/07/18 03:27:03;;;;;;;1.10;1.10;;;;;13.50;96581.00;;;;5055718;28;20262;-54
2023/07/18 03:29:30;;;;;;;0.50;0.50;;;;;13.30;96581.00;;;;5055651;28;20200;-54
2023/07/18 03:31:59;;;;;;;0.50;0.50;;;;;13.30;96582.00;;;;5056327;28;20196;-55
2023/07/18 03:34:27;;;;;;;0.50;0.50;;;;;12.90;96580.00;;;;5055852;28;20197;-55
2023/07/18 03:36:55;;;;;;;1.43;1.20;;;;;13.10;96576.00;;;;5055893;28;20220;-54
2023/07/18 03:39:24;;;;;;;0.60;0.60;;;;;13.30;96579.00;;;;5055396;28;20613;-54
2023/07/18 03:41:52;;;;;;;1.47;0.63;;;;;13.30;96568.00;;;;5055712;28;20202;-54
2023/07/18 03:44:19;;;;;;;0.97;0.97;;;;;13.30;96567.00;;;;5037368;28;20216;-54
2023/07/18 03:46:47;;;;;;;0.97;0.97;;;;;13.10;96561.00;;;;5037325;28;20289;-54
2023/07/18 03:49:14;;;;;;;0.67;0.67;;;;;13.10;96570.00;;;;5055452;28;20215;-54
2023/07/18 03:51:41;;;;;;;0.70;0.70;;;;;13.00;96565.00;;;;5055165;28;20196;-54
2023/07/18 03:54:09;;;;;;;0.60;0.60;;;;;12.90;96565.00;;;;5055360;28;20218;-54
2023/07/18 03:56:38;;;;;;;0.50;0.50;;;;;13.00;96563.00;;;;5054986;28;20706;-54
2023/07/18 03:59:05;;;;;;;0.40;0.40;;;;;13.10;96552.00;;;;5054991;28;20193;-55
2023/07/18 04:01:33;;;;;;;0.90;0.90;;;;;13.30;96567.00;;;;5055229;28;20537;-55
2023/07/18 04:04:00;;;;;;;0.50;0.50;;;;;13.20;96558.00;;;;5054952;28;20218;-55
2023/07/18 04:06:27;;;;;;;0.70;0.70;;;;;13.20;96555.00;;;;5055211;28;20211;-55
2023/07/18 04:08:55;;;;;;;0.47;0.47;;;;;13.30;96557.00;;;;5055046;28;20245;-54
2023/07/18 04:11:22;;;;;;;0.97;0.97;;;;;13.40;96557.00;;;;5055174;28;20563;-54
2023/07/18 04:13:51;;;;;;;0.90;0.90;;;;;13.40;96552.00;;;;5055017;28;20269;-54
2023/07/18 04:16:18;;;;;;;0.83;0.83;;;;;13.60;96547.00;;;;5054878;28;20573;-54
2023/07/18 04:18:46;;;;;;;2.20;0.83;;;;;13.90;96550.00;;;;5054702;28;20197;-55
2023/07/18 04:21:13;;;;;;;0.70;0.70;;;;;13.90;96552.00;;;;5054654;28;20250;-53
2023/07/18 04:23:41;;;;;;;0.70;0.70;;;;;13.70;96555.00;;;;5054407;28;20706;-54
2023/07/18 04:26:09;;;;;;;0.60;0.60;;;;;13.80;96552.00;;;;5054602;28;20192;-54
2023/07/18 04:28:37;;;;;;;0.40;0.40;;;;;13.90;96548.00;;;;5054755;28;20191;-54
2023/07/18 04:31:07;;;;;;;0.83;0.83;;;;;13.90;96553.00;;;;5054468;28;20231;-54
2023/07/18 04:33:35;;;;;;;0.87;0.87;;;;;13.90;96549.00;;;;5054130;28;20291;-53
2023/07/18 04:36:04;;;;;;;0.80;0.80;;;;;13.90;96543.00;;;;5054240;28;20306;-60
2023/07/18 04:38:31;;;;;;;0.60;0.60;;;;;13.80;96545.00;;;;5054295;28;20192;-56
2023/07/18 04:40:59;;;;;;;0.70;0.70;;;;;13.90;96547.00;;;;5054391;28;20192;-55
2023/07/18 04:43:27;;;;;;;0.87;0.87;;;;;14.00;96547.00;;;;5054358;28;20224;-55
2023/07/18 04:45:55;;;;;;;0.83;0.83;;;;;14.00;96547.00;;;;5054134;28;20188;-55
2023/07/18 04:48:24;;;;;;;1.47;1.37;;;;;14.00;96540.00;;;;5054081;28;20192;-56
2023/07/18 04:50:59;;;;;;;0.60;0.60;;;;;14.00;96537.00;;;;5054254;28;20605;-55
2023/07/18 04:53:27;;;;;;;0.63;0.63;;;;;14.10;96540.00;;;;5054726;28;20218;-55
2023/07/18 04:55:55;;;;;;;1.23;1.13;;;;;14.10;96546.00;;;;5054050;28;20557;-55
2023/07/18 04:58:24;;;;;;;0.87;0.87;;;;;14.20;96536.00;;;;5054099;28;20195;-55
2023/07/18 05:00:53;;;;;;;3.03;1.17;;;;;14.10;96539.00;;;;5053866;28;20188;-54
2023/07/18 05:03:20;;;;;;;0.80;0.80;;;;;14.00;96536.00;;;;5053758;28;20230;-54
2023/07/18 05:05:49;;;;;;;0.87;0.87;;;;;13.90;96530.00;;;;5053773;28;20188;-54
2023/07/18 05:08:17;;;;;;;0.50;0.50;;;;;14.00;96539.00;;;;5053793;28;20193;-55
2023/07/18 05:10:45;;;;;;;6.77;6.10;;;;;14.10;96522.00;;;;5053669;28;20200;-56
2023/07/18 05:13:13;;;;;;;1.93;1.83;;;;;14.30;96534.00;;;;5053665;28;20220;-55
2023/07/18 05:15:43;;;;;;;0.47;0.47;;;;;14.00;96534.00;;;;5054253;28;20214;-54
2023/07/18 05:18:10;;;;;;;0.63;0.63;;;;;14.00;96529.00;;;;5054428;28;20694;-54
2023/07/18 05:20:38;;;;;;;0.83;0.83;;;;;14.20;96530.00;;;;5053458;28;20196;-53
2023/07/18 05:23:09;;;;;;;0.87;0.87;;;;;14.30;96524.00;;;;5054244;28;20235;-54
2023/07/18 05:25:36;;;;;;;0.60;0.60;;;;;14.40;96532.00;;;;5053441;28;20226;-53
2023/07/18 05:28:04;;;;;;;0.87;0.87;;;;;14.50;96520.00;;;;5053727;28;20204;-54
2023/07/18 05:30:31;;;;;;;1.00;1.00;;;;;14.50;96522.00;;;;5054103;28;20195;-54
2023/07/18 05:32:59;;;;;;;0.57;0.57;;;;;14.60;96514.00;;;;5053231;28;20710;-54
2023/07/18 05:35:26;;;;;;;1.27;1.23;;;;;14.80;96517.00;;;;5053413;28;20203;-54
2023/07/18 05:37:54;;;;;;;0.90;0.90;;;;;14.90;96516.00;;;;5053394;28;20228;-54
2023/07/18 05:40:23;;;;;;;0.73;0.73;;;;;15.00;96510.00;;;;5053211;28;20188;-55
2023/07/18 05:42:51;;;;;;;2.03;0.97;;;;;15.00;96506.00;;;;5053306;28;20265;-55
2023/07/18 05:45:18;;;;;;;0.80;0.80;;;;;15.10;96510.00;;;;5052398;28;20195;-55
2023/07/18 05:47:46;;;;;;;0.50;0.50;;;;;15.30;96503.00;;;;5053342;28;20195;-55
2023/07/18 05:50:14;;;;;;;0.70;0.70;;;;;15.20;96502.00;;;;5035131;28;20204;-55
2023/07/18 05:52:41;;;;;;;0.50;0.50;;;;;15.30;96495.00;;;;5053251;28;20710;-54
2023/07/18 05:55:10;;;;;;;0.60;0.60;;;;;15.40;96495.00;;;;5053201;28;20253;-54
2023/07/18 05:57:39;;;;;;;1.37;1.27;;;;;15.40;96501.00;;;;5053214;28;20231;-54
2023/07/18 06:00:07;;;;;;;1.33;1.17;;;;;15.40;96500.00;;;;5052952;28;20254;-55
2023/07/18 06:02:34;;;;;;;0.80;0.80;;;;;15.50;96495.00;;;;5035302;28;20219;-55
2023/07/18 06:05:02;;;;;;;0.60;0.60;;;;;15.40;96497.00;;;;5053161;28;20204;-56
2023/07/18 06:07:29;;;;;;;0.70;0.70;;;;;15.50;96490.00;;;;5052893;28;20713;-55
2023/07/18 06:09:57;;;;;;;1.53;1.40;;;;;15.70;96490.00;;;;5035006;28;20199;-55
2023/07/18 06:12:25;;;;;;;0.40;0.40;;;;;15.80;96487.00;;;;5052722;28;20211;-54
2023/07/18 06:14:55;;;;;;;1.03;1.03;;;;;15.90;96489.00;;;;5035902;28;20215;-55
2023/07/18 06:17:22;;;;;;;1.00;0.97;;;;;16.00;96483.00;;;;5052672;28;20302;-54
2023/07/18 06:19:50;;;;;;;3.60;0.93;;;;;16.20;96478.00;;;;5052599;28;20282;-54
2023/07/18 06:22:18;;;;;;;0.83;0.83;;;;;16.20;96446.00;;;;5052455;28;20207;-55
2023/07/18 06:24:46;;;;;;;1.37;1.27;;;;;16.30;96475.00;;;;5035572;28;20647;-56
2023/07/18 06:27:13;;;;;;;0.53;0.53;;;;;16.40;96480.00;;;;5052673;28;20212;-54
2023/07/18 06:29:41;;;;;;;0.83;0.83;;;;;16.50;96477.00;;;;5052669;28;20219;-54
2023/07/18 06:32:10;;;;;;;0.70;0.70;;;;;16.70;96473.00;;;;5052489;28;20203;-54
2023/07/18 06:34:40;;;;;;;0.67;0.67;;;;;16.80;96473.00;;;;5052610;28;20227;-56
2023/07/18 06:37:08;;;;;;;0.60;0.60;;;;;16.90;96484.00;;;;5050483;28;20311;-54
2023/07/18 06:39:36;;;;;;;0.63;0.63;;;;;16.80;96467.00;;;;5048750;28;20690;-54
2023/07/18 06:42:05;;;;;;;0.53;0.53;;;;;16.90;96473.00;;;;5050908;28;20253;-54
2023/07/18 06:44:32;;;;;;;0.63;0.63;;;;;17.20;96467.00;;;;5050449;28;20196;-53
2023/07/18 06:47:00;;;;;;;1.00;1.00;;;;;17.10;96471.00;;;;5050415;28;20195;-53
2023/07/18 06:49:29;;;;;;;0.40;0.40;;;;;17.20;96464.00;;;;5050797;28;20200;-54
2023/07/18 06:51:56;;;;;;;0.70;0.70;;;;;17.30;96469.00;;;;5048458;28;20230;-54
2023/07/18 06:54:24;;;;;;;0.70;0.70;;;;;17.40;96470.00;;;;5050621;28;20211;-54
2023/07/18 06:56:51;;;;;;;0.60;0.60;;;;;17.60;96467.00;;;;5051612;28;20299;-54
2023/07/18 06:59:19;;;;;;;0.90;0.90;;;;;17.60;96465.00;;;;5054600;28;20215;-53
2023/07/18 07:01:47;;;;;;;0.77;0.77;;;;;17.70;96456.00;;;;5053699;28;20192;-54
2023/07/18 07:04:15;;;;;;;0.67;0.67;;;;;17.90;96462.00;;;;5054503;28;20691;-54
2023/07/18 07:06:44;;;;;;;0.60;0.60;;;;;18.00;96450.00;;;;5053777;28;20195;-54
2023/07/18 07:09:13;;;;;;;0.67;0.67;;;;;18.20;96453.00;;;;5054747;28;20543;-54
2023/07/18 07:11:40;;;;;;;0.60;0.60;;;;;18.30;96450.00;;;;5053283;28;20235;-53
2023/07/18 07:14:07;;;;;;;0.73;0.73;;;;;18.40;96442.00;;;;5053978;28;20223;-53
2023/07/18 07:16:35;;;;;;;0.47;0.47;;;;;18.70;96433.00;;;;5053791;28;20219;-53
2023/07/18 07:19:05;;;;;;;0.40;0.40;;;;;18.70;96433.00;;;;5053891;28;20200;-54
2023/07/18 07:21:32;;;;;;;0.93;0.93;;;;;18.70;96426.00;;;;5053831;28;20192;-54
2023/07/18 07:24:02;;;;;;;0.90;0.90;;;;;19.00;96427.00;;;;5052976;28;20297;-54
2023/07/18 07:26:30;;;;;;;0.50;0.50;;;;;19.10;96425.00;;;;5053689;28;20196;-54
2023/07/18 07:28:57;;;;;;;1.00;1.00;;;;;19.20;96426.00;;;;5053694;28;20196;-54
2023/07/18 07:31:25;;;;;;;1.03;0.70;;;;;19.50;96424.00;;;;5052517;28;20195;-54
2023/07/18 07:33:53;;;;;;;0.50;0.50;;;;;19.50;96420.00;;;;5053867;28;20239;-54
2023/07/18 07:36:20;;;;;;;0.47;0.47;;;;;19.60;96417.00;;;;5053292;28;20196;-54
2023/07/18 07:38:48;;;;;;;0.60;0.60;;;;;19.70;96411.00;;;;5052893;28;20615;-54
2023/07/18 07:41:17;;;;;;;0.50;0.50;;;;;19.70;96394.00;;;;5053188;28;20206;-54
2023/07/18 07:43:45;;;;;;;0.73;0.73;;;;;19.90;96383.00;;;;5054051;28;20216;-54
2023/07/18 07:46:12;;;;;;;0.80;0.80;;;;;20.00;96402.00;;;;5053476;28;20250;-54
2023/07/18 07:48:40;;;;;;;0.70;0.70;;;;;20.10;96389.00;;;;5054208;28;20200;-54
2023/07/18 07:51:07;;;;;;;0.60;0.60;;;;;20.30;96391.00;;;;5052072;28;20231;-54
2023/07/18 07:53:35;;;;;;;0.90;0.90;;;;;20.40;96394.00;;;;5053604;28;20311;-54
2023/07/18 07:56:02;;;;;;;1.10;1.10;;;;;20.20;96393.00;;;;5053158;28;20192;-54
2023/07/18 07:58:31;;;;;;;0.50;0.50;;;;;20.60;96393.00;;;;5053143;28;20207;-54
2023/07/18 08:00:59;;;;;;;0.50;0.50;;;;;20.60;96391.00;;;;5053069;28;20200;-54
2023/07/18 08:03:26;;;;;;;0.50;0.50;;;;;20.70;96382.00;;;;5053162;28;20563;-54
2023/07/18 08:05:53;;;;;;;0.50;0.50;;;;;20.90;96389.00;;;;5052934;28;20200;-54
2023/07/18 08:08:21;;;;;;;0.50;0.50;;;;;21.20;96387.00;;;;5050978;28;20274;-54
2023/07/18 08:10:49;;;;;;;0.80;0.68;;;;;21.30;96374.00;;;;5052951;28;20200;-55
2023/07/18 08:13:18;;;;;;;0.70;0.70;;;;;21.40;96377.00;;;;5052827;28;20230;-55
2023/07/18 08:15:46;;;;;;;0.93;0.93;;;;;21.50;96381.00;;;;5053288;28;20675;-55
2023/07/18 08:18:14;;;;;;;0.95;0.95;;;;;21.60;96380.00;;;;5052421;28;20226;-55
2023/07/18 08:20:41;;;;;;;0.60;0.60;;;;;21.60;96370.00;;;;5052847;28;20651;-55
2023/07/18 08:23:09;;;;;;;1.25;0.93;;;;;21.50;96375.00;;;;5051330;28;20289;-55
2023/07/18 08:25:36;;;;;;;0.70;0.70;;;;;21.60;96375.00;;;;5052942;28;20307;-55
2023/07/18 08:28:04;;;;;;;0.50;0.50;;;;;22.00;96374.00;;;;5052819;28;20655;-55
2023/07/18 08:30:32;;;;;;;0.63;0.63;;;;;22.10;96377.00;;;;5052723;28;20196;-55
2023/07/18 08:33:01;;;;;;;1.30;1.20;;;;;22.20;96373.00;;;;5052520;28;20283;-55
2023/07/18 08:35:28;;;;;;;2.63;0.80;;;;;22.20;96365.00;;;;5052752;28;20199;-55
2023/07/18 08:37:55;;;;;;;0.70;0.70;;;;;22.40;96359.00;;;;5050484;28;20208;-54
2023/07/18 08:40:23;;;;;;;0.73;0.70;;;;;22.40;96368.00;;;;5052450;28;20219;-54
2023/07/18 08:42:51;;;;;;;0.45;0.45;;;;;22.50;96367.00;;;;5052291;28;20302;-55
2023/07/18 08:45:20;;;;;;;0.55;0.55;;;;;22.50;96374.00;;;;5052365;28;20204;-55
2023/07/18 08:47:51;;;;;;;1.40;0.80;;;;;22.40;96364.00;;;;5052255;28;20200;-55
2023/07/18 08:50:21;;;;;;;0.80;0.80;;;;;22.60;96362.00;;;;5052278;28;20192;-54
2023/07/18 08:52:48;;;;;;;0.95;0.95;;;;;22.50;96355.00;;;;5052154;28;20224;-55
2023/07/18 08:55:16;;;;;;;0.50;0.50;;;;;22.90;96357.00;;;;5052100;28;20600;-54
2023/07/18 08:57:46;;;;;;;0.70;0.70;;;;;22.90;96356.00;;;;5052040;28;20222;-54
2023/07/18 09:00:14;;;;;;;1.20;1.13;;;;;23.00;96358.00;;;;5052115;28;20250;-54
2023/07/18 09:02:42;;;;;;;13.70;1.17;;;;;23.20;96343.00;;;;5051922;28;20216;-55
2023/07/18 09:05:32;;;;;;;1.27;1.20;;;;;23.20;96347.00;;;;5050811;28;20298;-54
2023/07/18 09:08:01;;;;;;;0.93;0.93;;;;;23.20;96344.00;;;;5051787;28;20196;-56
2023/07/18 09:10:29;;;;;;;0.98;0.90;;;;;23.10;96344.00;;;;5051802;28;20201;-55
2023/07/18 09:13:02;;;;;;;0.40;0.40;;;;;23.20;96333.00;;;;5033730;28;20228;-55
2023/07/18 09:15:30;;;;;;;0.60;0.60;;;;;23.50;96337.00;;;;5052091;28;20306;-54
2023/07/18 09:18:03;;;;;;;0.55;0.55;;;;;23.70;96335.00;;;;5051842;28;20619;-54
2023/07/18 09:20:32;;;;;;;1.65;1.33;;;;;23.60;96330.00;;;;5051691;28;20185;-55
2023/07/18 09:23:03;;;;;;;0.70;0.70;;;;;23.60;96342.00;;;;5051405;28;20228;-54
2023/07/18 09:25:31;;;;;;;0.50;0.50;;;;;23.50;96339.00;;;;5051653;28;20659;-56
2023/07/18 09:27:59;;;;;;;1.10;1.05;;;;;23.70;96345.00;;;;5051608;28;20685;-55
2023/07/18 09:30:29;;;;;;;0.47;0.47;;;;;23.90;96341.00;;;;5051531;28;20196;-57
2023/07/18 09:32:57;;;;;;;1.13;1.10;;;;;24.30;96351.00;;;;5051647;28;20224;-55
2023/07/18 09:35:27;;;;;;;0.52;0.52;;;;;24.40;96356.00;;;;5051312;28;20192;-55
2023/07/18 09:37:57;;;;;;;0.47;0.47;;;;;24.60;96354.00;;;;5050336;28;20667;-55
2023/07/18 09:40:25;;;;;;;0.73;0.73;;;;;25.00;96346.00;;;;5033366;28;20679;-55
2023/07/18 09:42:53;;;;;;;0.80;0.80;;;;;25.10;96344.00;;;;5047498;28;20216;-55
2023/07/18 09:45:22;;;;;;;0.60;0.60;;;;;24.90;96358.00;;;;5051209;28;20199;-55
2023/07/18 09:47:50;;;;;;;1.38;1.08;;;;;24.60;96385.00;;;;5051156;28;20192;-55
2023/07/18 09:50:18;;;;;;;0.50;0.50;;;;;24.30;96414.00;;;;5050380;28;20265;-54
2023/07/18 09:52:49;;;;;;;0.70;0.70;;;;;23.90;96449.00;;;;5047764;28;20669;-54
2023/07/18 09:55:22;;;;;;;0.80;0.80;;;;;23.90;96451.00;;;;5051095;28;20608;-54
2023/07/18 09:57:51;;;;;;;0.90;0.90;;;;;23.80;96453.00;;;;5050915;28;20211;-55
2023/07/18 10:00:19;;;;;;;0.80;0.80;;;;;23.40;96430.00;;;;5050988;28;20289;-54
2023/07/18 10:02:46;;;;;;;1.00;1.00;;;;;23.40;96423.00;;;;5050894;28;20220;-55
2023/07/18 10:05:15;;;;;;;1.20;1.20;;;;;23.40;96413.00;;;;5050963;28;20235;-55
2023/07/18 10:07:44;;;;;;;1.60;1.50;;;;;23.30;96353.00;;;;5050939;28;20207;-55
2023/07/18 10:10:12;;;;;;;2.60;0.77;;;;;23.20;96386.00;;;;5050929;28;20266;-54
2023/07/18 10:12:59;;;;;;;0.80;0.80;;;;;23.10;96353.00;;;;5032754;28;20369;-55
2023/07/18 10:15:27;;;;;;;1.45;1.35;;;;;23.00;96314.00;;;;5047634;28;20192;-55
2023/07/18 10:17:55;;;;;;;0.68;0.68;;;;;23.20;96248.00;;;;5050681;28;20673;-55
2023/07/18 10:20:25;;;;;;;1.15;1.15;;;;;23.50;96160.00;;;;5050547;28;20215;-55
2023/07/18 10:22:57;;;;;;;0.85;0.85;;;;;23.40;96006.00;;;;5049503;28;20232;-55
2023/07/18 10:25:26;;;;;;;0.85;0.85;;;;;23.50;96016.00;;;;5050260;28;20195;-55
2023/07/18 10:27:55;;;;;;;0.50;0.50;;;;;23.80;96069.00;;;;5050949;28;20246;-55
2023/07/18 10:30:23;;;;;;;0.50;0.50;;;;;24.10;96098.00;;;;5050313;28;20286;-55
2023/07/18 10:32:53;;;;;;;0.85;0.85;;;;;24.40;96078.00;;;;5054621;28;20618;-55
2023/07/18 10:35:21;;;;;;;0.70;0.70;;;;;25.00;96149.00;;;;5054497;28;20196;-55
2023/07/18 10:37:53;;;;;;;0.65;0.65;;;;;25.80;96242.00;;;;5055066;28;20198;-53
2023/07/18 10:40:35;;;;;;;1.45;1.35;;;;;26.10;96277.00;;;;5054340;28;20221;-54
2023/07/18 10:43:06;;;;;;;1.02;1.02;;;;;25.60;96286.00;;;;5055157;28;20624;-55
2023/07/18 10:45:37;;;;;;;0.63;0.63;;;;;25.80;96317.00;;;;5054680;28;20254;-54
2023/07/18 10:48:15;;;;;;;0.85;0.85;;;;;26.10;96339.00;;;;5054803;28;20593;-54
2023/07/18 10:50:43;;;;;;;0.47;0.47;;;;;25.80;96383.00;;;;5053987;28;20199;-55
2023/07/18 10:53:12;;;;;;;0.70;0.70;;;;;25.70;96438.00;;;;5054562;28;20219;-54
2023/07/18 10:55:40;;;;;;;0.90;0.77;;;;;25.30;96452.00;;;;5035023;28;20200;-53
2023/07/18 10:58:15;;;;;;;0.70;0.70;;;;;24.80;96447.00;;;;5054747;28;20298;-53
2023/07/18 11:00:42;;;;;;;1.00;1.00;;;;;24.70;96416.00;;;;5054554;28;20188;-53
2023/07/18 11:03:20;;;;;;;1.45;1.35;;;;;24.20;96399.00;;;;5054501;28;20243;-53
2023/07/18 11:05:49;;;;;;;2.72;1.15;;;;;24.30;96393.00;;;;5050788;28;20188;-54
2023/07/18 11:08:25;;;;;;;0.63;0.63;;;;;23.70;96393.00;;;;5054552;28;20226;-54
2023/07/18 11:10:55;;;;;;;0.70;0.70;;;;;23.70;96416.00;;;;5054107;28;20192;-53
2023/07/18 11:13:29;;;;;;;0.82;0.82;;;;;23.30;96414.00;;;;5052534;28;20290;-53
2023/07/18 11:15:58;;;;;;;0.80;0.80;;;;;23.20;96416.00;;;;5053863;28;20191;-54
2023/07/18 11:18:26;;;;;;;1.40;1.40;;;;;23.20;96438.00;;;;5054342;28;20216;-55
2023/07/18 11:20:54;;;;;;;0.65;0.65;;;;;23.20;96438.00;;;;5053573;28;20711;-54
2023/07/18 11:23:22;;;;;;;1.40;1.30;;;;;23.10;96429.00;;;;5054068;28;20286;-54
2023/07/18 11:25:49;;;;;;;0.98;0.98;;;;;23.20;96414.00;;;;5053503;28;20649;-54
2023/07/18 11:28:17;;;;;;;1.02;1.02;;;;;23.00;96404.00;;;;5036329;28;20200;-55
2023/07/18 11:30:46;;;;;;;0.52;0.52;;;;;22.90;96365.00;;;;5053805;28;20211;-53
2023/07/18 11:33:14;;;;;;;0.93;0.93;;;;;22.80;96322.00;;;;5053024;28;20319;-53
2023/07/18 11:35:47;;;;;;;0.65;0.65;;;;;22.60;96229.00;;;;5053742;28;20192;-54
2023/07/18 11:38:18;;;;;;;0.70;0.70;;;;;22.60;96317.00;;;;5054092;28;20194;-54
2023/07/18 11:40:45;;;;;;;1.58;1.50;;;;;22.80;96325.00;;;;5053706;28;20192;-54
2023/07/18 11:43:19;;;;;;;1.15;1.15;;;;;22.90;96328.00;;;;5052326;28;20215;-54
2023/07/18 11:45:48;;;;;;;3.58;1.67;;;;;22.60;96305.00;;;;5035329;28;20239;-54
2023/07/18 11:48:20;;;;;;;0.85;0.85;;;;;22.80;96263.00;;;;5053819;28;20206;-54
2023/07/18 11:50:50;;;;;;;0.88;0.88;;;;;23.00;96256.00;;;;5053384;28;20694;-54
2023/07/18 11:53:26;;;;;;;0.75;0.75;;;;;23.00;96215.00;;;;5053703;28;20220;-54
2023/07/18 11:55:55;;;;;;;0.77;0.77;;;;;23.20;96191.00;;;;5053150;28;20199;-54
2023/07/18 11:58:24;;;;;;;0.70;0.70;;;;;23.40;96186.00;;;;5053411;28;20196;-54
2023/07/18 12:00:57;;;;;;;0.73;0.73;;;;;23.40;96183.00;;;;5035746;28;20659;-54
2023/07/18 12:03:25;;;;;;;0.65;0.65;;;;;23.50;96159.00;;;;5030667;28;20223;-54
2023/07/18 12:05:53;;;;;;;0.68;0.68;;;;;23.40;96145.00;;;;5052961;28;20199;-54
2023/07/18 12:08:20;;;;;;;0.70;0.70;;;;;23.70;96142.00;;;;5053097;28;20200;-54
2023/07/18 12:10:48;;;;;;;0.73;0.73;;;;;23.80;96136.00;;;;5053096;28;20659;-54
2023/07/18 12:13:16;;;;;;;0.85;0.85;;;;;23.80;96127.00;;;;5053017;28;20270;-55
2023/07/18 12:15:44;;;;;;;6.00;1.95;;;;;23.90;96112.00;;;;5052977;28;20200;-54
2023/07/18 12:18:13;;;;;;;0.52;0.52;;;;;24.10;96122.00;;;;5034936;28;20204;-54
2023/07/18 12:20:40;;;;;;;0.55;0.55;;;;;24.30;96115.00;;;;5053090;28;20573;-55
2023/07/18 12:23:08;;;;;;;4.28;1.38;;;;;24.70;96115.00;;;;5052595;28;20239;-55
2023/07/18 12:25:35;;;;;;;2.33;1.33;;;;;24.70;96109.00;;;;5035075;28;20204;-55